createdAt,value
2023-05-15T00:00:30.810Z,66.80
2023-05-15T00:03:02.456Z,66.80
2023-05-15T00:05:33.818Z,66.85
2023-05-15T00:08:04.889Z,66.84
2023-05-15T00:10:36.809Z,67.01
2023-05-15T00:13:07.855Z,66.82
2023-05-15T00:15:40.410Z,66.65
2023-05-15T00:18:11.308Z,66.81
2023-05-15T00:20:42.002Z,67.15
2023-05-15T00:23:12.519Z,67.11
2023-05-15T00:25:43.467Z,67.34
2023-05-15T00:28:13.991Z,67.11
2023-05-15T00:30:47.203Z,67.00
2023-05-15T00:33:18.044Z,67.46
2023-05-15T00:35:48.876Z,67.72
2023-05-15T00:38:19.728Z,67.45
2023-05-15T00:40:52.764Z,67.24
2023-05-15T00:43:26.813Z,67.14
2023-05-15T00:45:58.817Z,67.16
2023-05-15T00:48:30.946Z,67.56
2023-05-15T00:51:01.766Z,67.95
2023-05-15T00:53:32.700Z,68.05
2023-05-15T00:56:04.186Z,68.18
2023-05-15T00:58:34.899Z,68.39
2023-05-15T01:01:08.284Z,68.40
2023-05-15T01:03:41.064Z,68.46
2023-05-15T01:06:12.090Z,68.53
2023-05-15T01:08:47.689Z,68.67
2023-05-15T01:11:19.020Z,68.83
2023-05-15T01:13:50.072Z,68.87
2023-05-15T01:16:22.096Z,68.91
2023-05-15T01:18:53.117Z,69.15
2023-05-15T01:21:58.598Z,69.18
2023-05-15T01:24:44.937Z,69.15
2023-05-15T01:27:27.333Z,69.56
2023-05-15T01:30:08.070Z,69.71
2023-05-15T01:32:44.383Z,69.71
2023-05-15T01:35:21.432Z,69.68
2023-05-15T01:38:03.996Z,69.94
2023-05-15T01:40:36.807Z,69.99
2023-05-15T01:43:12.769Z,70.31
2023-05-15T01:45:46.079Z,70.83
2023-05-15T01:48:19.267Z,70.78
2023-05-15T01:50:52.219Z,70.69
2023-05-15T01:53:23.365Z,70.76
2023-05-15T01:55:55.621Z,70.83
2023-05-15T01:58:28.497Z,70.71
2023-05-15T02:01:01.029Z,70.76
2023-05-15T02:03:34.395Z,70.83
2023-05-15T02:06:06.978Z,70.82
2023-05-15T02:08:42.013Z,71.15
2023-05-15T02:11:13.369Z,71.23
2023-05-15T02:13:46.190Z,71.22
2023-05-15T02:16:17.020Z,71.33
2023-05-15T02:18:47.694Z,71.57
2023-05-15T02:21:21.504Z,71.30
2023-05-15T02:23:52.068Z,71.40
2023-05-15T02:26:32.859Z,71.57
2023-05-15T02:29:14.800Z,71.63
2023-05-15T02:31:53.655Z,71.68
2023-05-15T02:34:34.121Z,71.74
2023-05-15T02:37:09.742Z,71.60
2023-05-15T02:39:41.573Z,71.60
2023-05-15T02:42:13.909Z,71.56
2023-05-15T02:44:45.316Z,71.66
2023-05-15T02:47:17.765Z,71.82
2023-05-15T02:49:48.346Z,71.75
2023-05-15T02:52:18.994Z,71.92
2023-05-15T02:54:49.853Z,71.97
2023-05-15T02:57:20.974Z,71.92
2023-05-15T02:59:51.767Z,71.24
2023-05-15T03:02:23.037Z,71.20
2023-05-15T03:04:55.751Z,71.46
2023-05-15T03:07:27.067Z,71.67
2023-05-15T03:09:58.315Z,72.27
2023-05-15T03:12:28.887Z,72.49
2023-05-15T03:14:59.622Z,72.55
2023-05-15T03:17:30.459Z,72.57
2023-05-15T03:20:01.075Z,72.65
2023-05-15T03:22:31.580Z,72.80
2023-05-15T03:25:02.739Z,73.02
2023-05-15T03:27:33.480Z,73.03
2023-05-15T03:30:04.292Z,73.32
2023-05-15T03:32:35.249Z,73.27
2023-05-15T03:35:06.352Z,73.21
2023-05-15T03:37:37.535Z,73.38
2023-05-15T03:40:09.912Z,73.63
2023-05-15T03:42:43.545Z,73.50
2023-05-15T03:45:14.154Z,73.56
2023-05-15T03:47:45.339Z,73.54
2023-05-15T03:50:16.462Z,73.77
2023-05-15T03:52:47.543Z,73.70
2023-05-15T03:55:18.884Z,73.13
2023-05-15T03:57:49.741Z,72.95
2023-05-15T04:00:22.126Z,73.15
2023-05-15T04:02:52.711Z,73.59
2023-05-15T04:05:23.795Z,74.05
2023-05-15T04:07:54.554Z,74.30
2023-05-15T04:10:25.622Z,74.53
2023-05-15T04:12:56.909Z,74.69
2023-05-15T04:15:28.916Z,74.79
2023-05-15T04:17:59.768Z,74.88
2023-05-15T04:20:31.073Z,75.08
2023-05-15T04:23:04.279Z,75.31
2023-05-15T04:25:34.932Z,75.23
2023-05-15T04:28:06.557Z,75.17
2023-05-15T04:30:37.315Z,75.16
2023-05-15T04:33:08.986Z,75.18
2023-05-15T04:35:39.830Z,75.13
2023-05-15T04:38:13.853Z,75.32
2023-05-15T04:40:44.355Z,75.42
2023-05-15T04:43:14.879Z,75.54
2023-05-15T04:45:47.031Z,75.53
2023-05-15T04:48:19.144Z,75.53
2023-05-15T04:50:49.737Z,75.45
2023-05-15T04:53:20.867Z,75.49
2023-05-15T04:55:52.561Z,75.47
2023-05-15T04:58:23.519Z,75.36
2023-05-15T05:00:54.196Z,75.36
2023-05-15T05:03:25.083Z,75.30
2023-05-15T05:05:56.102Z,75.36
2023-05-15T05:08:26.906Z,75.35
2023-05-15T05:10:59.810Z,75.35
2023-05-15T05:13:30.430Z,75.20
2023-05-15T05:16:01.083Z,75.21
2023-05-15T05:18:32.484Z,75.24
2023-05-15T05:21:04.003Z,75.08
2023-05-15T05:23:34.929Z,75.01
2023-05-15T05:26:07.939Z,74.98
2023-05-15T05:28:38.430Z,75.13
2023-05-15T05:31:09.833Z,75.28
2023-05-15T05:33:41.212Z,75.39
2023-05-15T05:36:12.309Z,75.35
2023-05-15T05:38:43.293Z,75.58
2023-05-15T05:41:13.854Z,75.60
2023-05-15T05:43:44.352Z,75.54
2023-05-15T05:46:16.395Z,75.90
2023-05-15T05:48:47.237Z,76.06
2023-05-15T05:51:18.498Z,76.20
2023-05-15T05:53:49.042Z,75.98
2023-05-15T05:56:19.901Z,75.80
2023-05-15T05:58:50.541Z,75.97
2023-05-15T06:01:21.934Z,76.66
2023-05-15T06:03:52.521Z,76.69
2023-05-15T06:06:23.681Z,76.50
2023-05-15T06:08:56.368Z,76.25
2023-05-15T06:11:27.618Z,76.00
2023-05-15T06:13:58.466Z,75.84
2023-05-15T06:16:29.153Z,75.74
2023-05-15T06:19:00.174Z,75.60
2023-05-15T06:21:30.717Z,75.74
2023-05-15T06:24:01.665Z,76.10
2023-05-15T06:26:32.755Z,75.86
2023-05-15T06:29:03.516Z,75.92
2023-05-15T06:31:34.101Z,75.83
2023-05-15T06:34:04.539Z,75.95
2023-05-15T06:36:35.413Z,75.89
2023-05-15T06:39:06.594Z,75.98
2023-05-15T06:41:37.150Z,75.88
2023-05-15T06:44:07.739Z,75.83
2023-05-15T06:46:38.689Z,75.74
2023-05-15T06:49:09.198Z,75.60
2023-05-15T06:51:39.745Z,75.18
2023-05-15T06:54:11.821Z,74.78
2023-05-15T06:56:42.282Z,74.30
2023-05-15T06:59:13.251Z,73.92
2023-05-15T07:01:43.929Z,73.80
2023-05-15T07:04:14.546Z,73.91
2023-05-15T07:06:48.027Z,74.16
2023-05-15T07:09:19.154Z,74.06
2023-05-15T07:11:49.658Z,73.97
2023-05-15T07:14:24.180Z,73.93
2023-05-15T07:16:55.103Z,73.75
2023-05-15T07:19:26.039Z,73.77
2023-05-15T07:21:59.416Z,73.59
2023-05-15T07:24:31.108Z,73.33
2023-05-15T07:27:02.399Z,73.12
2023-05-15T07:29:32.981Z,72.93
2023-05-15T07:32:03.683Z,72.25
2023-05-15T07:34:34.888Z,72.40
2023-05-15T07:37:07.417Z,72.56
2023-05-15T07:39:37.953Z,72.65
2023-05-15T07:42:09.153Z,72.33
2023-05-15T07:44:40.666Z,71.30
2023-05-15T07:47:12.258Z,70.60
2023-05-15T07:49:43.058Z,70.55
2023-05-15T07:52:14.013Z,70.69
2023-05-15T07:54:44.556Z,70.79
2023-05-15T07:57:15.482Z,70.82
2023-05-15T07:59:46.369Z,70.17
2023-05-15T08:02:16.943Z,69.02
2023-05-15T08:04:47.491Z,67.54
2023-05-15T08:07:18.158Z,65.58
2023-05-15T08:09:49.125Z,63.32
2023-05-15T08:12:21.848Z,63.12
2023-05-15T08:14:54.068Z,63.97
2023-05-15T08:17:25.824Z,63.62
2023-05-15T08:19:56.800Z,63.08
2023-05-15T08:22:27.337Z,62.93
2023-05-15T08:24:58.240Z,62.65
2023-05-15T08:27:29.322Z,61.91
2023-05-15T08:30:00.322Z,62.01
2023-05-15T08:32:31.051Z,61.78
2023-05-15T08:35:01.676Z,61.00
2023-05-15T08:37:33.740Z,60.44
2023-05-15T08:40:08.185Z,61.01
2023-05-15T08:42:44.840Z,61.61
2023-05-15T08:45:16.795Z,61.64
2023-05-15T08:47:47.444Z,60.97
2023-05-15T08:50:22.503Z,60.68
2023-05-15T08:52:58.332Z,60.19
2023-05-15T08:55:29.627Z,59.81
2023-05-15T08:58:01.937Z,59.55
2023-05-15T09:00:32.866Z,59.18
2023-05-15T09:03:03.865Z,57.78
2023-05-15T09:05:36.308Z,57.05
2023-05-15T09:08:09.831Z,56.88
2023-05-15T09:10:41.459Z,57.30
2023-05-15T09:13:13.249Z,56.84
2023-05-15T09:15:44.070Z,56.65
2023-05-15T09:18:14.740Z,56.69
2023-05-15T09:20:46.712Z,56.35
2023-05-15T09:23:28.945Z,55.45
2023-05-15T09:25:59.865Z,55.15
2023-05-15T09:28:33.395Z,55.29
2023-05-15T09:31:06.425Z,54.99
2023-05-15T09:33:38.655Z,55.19
2023-05-15T09:36:10.744Z,55.12
2023-05-15T09:38:48.068Z,53.80
2023-05-15T09:41:30.358Z,53.71
2023-05-15T09:44:01.259Z,53.26
2023-05-15T09:46:35.250Z,53.76
2023-05-15T09:49:07.616Z,53.81
2023-05-15T09:51:38.257Z,53.60
2023-05-15T09:54:15.303Z,52.69
2023-05-15T09:56:47.567Z,52.32
2023-05-15T09:59:21.560Z,52.09
2023-05-15T10:01:53.095Z,52.21
2023-05-15T10:04:23.917Z,52.53
2023-05-15T10:06:54.441Z,52.71
2023-05-15T10:09:31.022Z,50.28
2023-05-15T10:12:01.649Z,50.95
2023-05-15T10:14:33.619Z,50.75
2023-05-15T10:17:04.756Z,51.16
2023-05-15T10:19:41.548Z,51.42
2023-05-15T10:22:24.761Z,50.51
2023-05-15T10:25:03.857Z,50.14
2023-05-15T10:27:35.998Z,50.96
2023-05-15T10:30:10.878Z,50.45
2023-05-15T10:32:43.592Z,50.76
2023-05-15T10:35:16.469Z,50.48
2023-05-15T10:37:49.899Z,49.97
2023-05-15T10:40:21.422Z,50.19
2023-05-15T10:42:52.522Z,49.96
2023-05-15T10:45:23.394Z,50.86
2023-05-15T10:47:56.434Z,50.99
2023-05-15T10:50:28.273Z,50.59
2023-05-15T10:52:59.203Z,50.03
2023-05-15T10:55:31.665Z,49.58
2023-05-15T10:58:02.492Z,50.23
2023-05-15T11:00:33.000Z,50.24
2023-05-15T11:03:06.066Z,49.44
2023-05-15T11:06:12.958Z,49.92
2023-05-15T11:08:43.070Z,50.58
2023-05-15T11:11:49.725Z,49.20
2023-05-15T11:14:20.350Z,49.11
2023-05-15T11:17:03.821Z,49.60
2023-05-15T11:19:57.860Z,51.84
2023-05-15T11:22:35.871Z,55.57
2023-05-15T11:25:08.786Z,58.63
2023-05-15T11:27:43.470Z,63.82
2023-05-15T11:30:20.545Z,75.65
2023-05-15T11:32:58.347Z,80.35
2023-05-15T11:35:34.112Z,81.68
2023-05-15T11:38:12.515Z,82.43
2023-05-15T11:40:55.074Z,81.34
2023-05-15T11:43:27.750Z,79.92
2023-05-15T11:46:07.332Z,81.29
2023-05-15T11:48:38.923Z,81.87
2023-05-15T11:51:19.850Z,80.76
2023-05-15T11:53:52.465Z,79.29
2023-05-15T11:56:24.412Z,76.91
2023-05-15T11:58:59.855Z,74.28
2023-05-15T12:01:39.718Z,73.05
2023-05-15T12:04:16.132Z,69.95
2023-05-15T12:06:49.604Z,68.77
2023-05-15T12:09:27.436Z,67.81
2023-05-15T12:11:58.584Z,65.87
2023-05-15T12:14:33.898Z,65.63
2023-05-15T12:17:05.149Z,63.16
2023-05-15T12:19:36.769Z,64.25
2023-05-15T12:22:09.002Z,63.45
2023-05-15T12:24:42.102Z,61.19
2023-05-15T12:27:14.358Z,60.40
2023-05-15T12:29:46.061Z,60.40
2023-05-15T12:32:16.724Z,58.37
2023-05-15T12:34:47.732Z,58.36
2023-05-15T12:37:20.738Z,56.23
2023-05-15T12:39:58.617Z,57.57
2023-05-15T12:42:29.355Z,54.39
2023-05-15T12:45:00.005Z,54.26
2023-05-15T12:47:31.669Z,52.70
2023-05-15T12:50:02.583Z,52.73
2023-05-15T12:52:33.968Z,52.57
2023-05-15T12:55:04.631Z,50.94
2023-05-15T12:57:36.123Z,51.12
2023-05-15T13:00:12.547Z,51.06
2023-05-15T13:02:46.231Z,50.55
2023-05-15T13:05:17.375Z,50.50
2023-05-15T13:07:48.930Z,50.04
2023-05-15T13:10:22.034Z,48.33
2023-05-15T13:12:54.003Z,48.70
2023-05-15T13:15:30.576Z,48.24
2023-05-15T13:18:06.672Z,47.81
2023-05-15T13:20:39.157Z,47.85
2023-05-15T13:23:11.209Z,47.65
2023-05-15T13:25:42.226Z,47.56
2023-05-15T13:28:13.407Z,46.73
2023-05-15T13:30:44.356Z,46.65
2023-05-15T13:33:15.242Z,45.67
2023-05-15T13:35:46.152Z,45.57
2023-05-15T13:38:16.897Z,46.15
2023-05-15T13:40:47.544Z,44.86
2023-05-15T13:43:18.565Z,44.29
2023-05-15T13:45:49.427Z,44.09
2023-05-15T13:48:19.945Z,44.40
2023-05-15T13:50:52.686Z,44.23
2023-05-15T13:53:23.802Z,43.69
2023-05-15T13:55:54.436Z,43.69
2023-05-15T13:58:27.353Z,44.05
2023-05-15T14:00:58.472Z,43.95
2023-05-15T14:03:29.528Z,43.53
2023-05-15T14:06:00.234Z,44.60
2023-05-15T14:08:30.799Z,46.42
2023-05-15T14:11:02.105Z,48.13
2023-05-15T14:13:33.439Z,47.63
2023-05-15T14:16:04.089Z,47.64
2023-05-15T14:18:34.703Z,46.79
2023-05-15T14:21:05.773Z,46.48
2023-05-15T14:23:38.987Z,46.67
2023-05-15T14:26:09.552Z,45.89
2023-05-15T14:28:40.408Z,44.34
2023-05-15T14:31:11.851Z,44.04
2023-05-15T14:33:42.404Z,43.77
2023-05-15T14:36:14.410Z,44.18
2023-05-15T14:38:47.912Z,44.18
2023-05-15T14:41:18.871Z,44.92
2023-05-15T14:43:49.423Z,45.97
2023-05-15T14:46:20.334Z,47.77
2023-05-15T14:48:51.263Z,48.91
2023-05-15T14:51:21.739Z,50.92
2023-05-15T14:53:52.280Z,57.39
2023-05-15T14:56:23.340Z,68.26
2023-05-15T14:58:54.202Z,68.43
2023-05-15T15:01:24.735Z,67.51
2023-05-15T15:03:55.619Z,68.39
2023-05-15T15:06:26.446Z,68.75
2023-05-15T15:08:57.234Z,68.48
2023-05-15T15:11:27.906Z,68.24
2023-05-15T15:13:58.710Z,69.33
2023-05-15T15:16:29.185Z,69.62
2023-05-15T15:18:59.797Z,68.22
2023-05-15T15:21:30.834Z,67.83
2023-05-15T15:24:01.830Z,66.21
2023-05-15T15:26:32.726Z,65.12
2023-05-15T15:29:03.293Z,63.99
2023-05-15T15:31:34.414Z,63.62
2023-05-15T15:34:06.647Z,64.10
2023-05-15T15:36:39.312Z,64.00
2023-05-15T15:39:11.554Z,63.04
2023-05-15T15:41:42.029Z,61.72
2023-05-15T15:44:12.580Z,60.18
2023-05-15T15:46:43.600Z,60.30
2023-05-15T15:49:14.141Z,60.14
2023-05-15T15:51:45.256Z,59.48
2023-05-15T15:54:15.863Z,59.18
2023-05-15T15:56:48.079Z,58.61
2023-05-15T15:59:18.901Z,58.45
2023-05-15T16:01:49.561Z,57.68
2023-05-15T16:04:20.091Z,57.66
2023-05-15T16:06:53.280Z,58.10
2023-05-15T16:09:23.801Z,57.98
2023-05-15T16:11:57.560Z,57.86
2023-05-15T16:14:31.888Z,57.48
2023-05-15T16:17:05.822Z,57.17
2023-05-15T16:19:36.694Z,56.84
2023-05-15T16:22:07.424Z,57.14
2023-05-15T16:24:38.564Z,57.82
2023-05-15T16:27:09.184Z,58.30
2023-05-15T16:29:40.083Z,58.14
2023-05-15T16:32:10.987Z,58.24
2023-05-15T16:34:41.540Z,57.31
2023-05-15T16:37:12.732Z,57.06
2023-05-15T16:39:43.828Z,56.61
2023-05-15T16:42:14.709Z,57.11
2023-05-15T16:44:45.606Z,57.39
2023-05-15T16:47:16.153Z,57.09
2023-05-15T16:49:49.182Z,56.60
2023-05-15T16:52:20.606Z,56.59
2023-05-15T16:54:51.511Z,56.53
2023-05-15T16:57:22.656Z,54.58
2023-05-15T16:59:53.426Z,54.12
2023-05-15T17:02:24.048Z,54.01
2023-05-15T17:04:55.195Z,54.70
2023-05-15T17:07:26.077Z,55.24
2023-05-15T17:09:56.774Z,54.88
2023-05-15T17:12:27.851Z,55.40
2023-05-15T17:14:58.522Z,55.34
2023-05-15T17:17:29.800Z,55.92
2023-05-15T17:20:02.534Z,55.94
2023-05-15T17:22:34.200Z,56.33
2023-05-15T17:25:05.125Z,56.52
2023-05-15T17:27:39.780Z,56.47
2023-05-15T17:30:12.122Z,56.32
2023-05-15T17:32:42.895Z,56.49
2023-05-15T17:35:13.776Z,55.99
2023-05-15T17:37:44.569Z,56.03
2023-05-15T17:40:15.652Z,56.62
2023-05-15T17:42:46.514Z,57.73
2023-05-15T17:45:17.611Z,59.08
2023-05-15T17:47:49.175Z,59.33
2023-05-15T17:50:19.870Z,59.27
2023-05-15T17:52:50.694Z,59.33
2023-05-15T17:55:21.509Z,59.72
2023-05-15T17:57:52.013Z,59.92
2023-05-15T18:00:23.321Z,60.01
2023-05-15T18:02:54.031Z,60.71
2023-05-15T18:05:29.344Z,61.15
2023-05-15T18:08:03.411Z,61.56
2023-05-15T18:10:34.027Z,61.91
2023-05-15T18:13:04.534Z,62.19
2023-05-15T18:15:38.386Z,62.03
2023-05-15T18:18:09.082Z,62.12
2023-05-15T18:20:42.101Z,62.33
2023-05-15T18:23:12.677Z,62.64
2023-05-15T18:25:43.475Z,63.09
2023-05-15T18:28:15.029Z,63.05
2023-05-15T18:30:47.285Z,63.03
2023-05-15T18:33:18.322Z,63.03
2023-05-15T18:35:48.746Z,62.62
2023-05-15T18:38:19.355Z,62.33
2023-05-15T18:40:50.049Z,62.11
2023-05-15T18:43:20.853Z,61.55
2023-05-15T18:45:51.859Z,61.07
2023-05-15T18:48:22.387Z,60.22
2023-05-15T18:50:53.807Z,59.51
2023-05-15T18:53:24.864Z,59.43
2023-05-15T18:55:55.545Z,58.75
2023-05-15T18:58:26.526Z,58.14
2023-05-15T19:01:00.157Z,58.34
2023-05-15T19:03:31.253Z,58.11
2023-05-15T19:06:01.935Z,57.67
2023-05-15T19:08:32.498Z,57.64
2023-05-15T19:11:03.087Z,58.12
2023-05-15T19:13:34.306Z,58.39
2023-05-15T19:16:06.830Z,58.43
2023-05-15T19:18:37.448Z,58.53
2023-05-15T19:21:08.253Z,58.68
2023-05-15T19:23:41.109Z,58.98
2023-05-15T19:26:15.734Z,59.15
2023-05-15T19:28:46.653Z,59.39
2023-05-15T19:31:27.824Z,59.45
2023-05-15T19:34:02.348Z,59.68
2023-05-15T19:36:33.050Z,59.86
2023-05-15T19:39:03.932Z,60.52
2023-05-15T19:41:34.939Z,60.73
2023-05-15T19:44:09.381Z,60.82
2023-05-15T19:46:40.308Z,60.83
2023-05-15T19:49:11.925Z,61.29
2023-05-15T19:51:42.548Z,61.33
2023-05-15T19:54:13.070Z,61.70
2023-05-15T19:56:44.025Z,61.86
2023-05-15T19:59:14.940Z,62.12
2023-05-15T20:01:47.401Z,62.15
2023-05-15T20:04:20.990Z,62.38
2023-05-15T20:06:51.452Z,62.54
2023-05-15T20:09:21.953Z,62.89
2023-05-15T20:11:52.841Z,63.13
2023-05-15T20:14:23.320Z,63.34
2023-05-15T20:16:54.113Z,63.69
2023-05-15T20:19:25.103Z,64.11
2023-05-15T20:21:55.908Z,64.30
2023-05-15T20:24:26.963Z,64.52
2023-05-15T20:26:58.319Z,64.76
2023-05-15T20:29:29.067Z,65.07
2023-05-15T20:32:00.370Z,65.32
2023-05-15T20:34:32.690Z,65.38
2023-05-15T20:37:03.322Z,65.52
2023-05-15T20:39:34.375Z,65.65
2023-05-15T20:42:05.481Z,65.98
2023-05-15T20:44:39.329Z,66.19
2023-05-15T20:47:10.504Z,66.38
2023-05-15T20:49:41.718Z,66.66
2023-05-15T20:52:12.287Z,66.92
2023-05-15T20:54:42.880Z,67.37
2023-05-15T20:57:13.480Z,67.86
2023-05-15T20:59:44.093Z,68.26
2023-05-15T21:02:15.212Z,68.56
2023-05-15T21:04:45.754Z,69.26
2023-05-15T21:07:16.617Z,69.74
2023-05-15T21:09:47.131Z,70.10
2023-05-15T21:12:17.780Z,70.77
2023-05-15T21:14:50.574Z,71.17
2023-05-15T21:17:21.859Z,71.69
2023-05-15T21:19:52.352Z,72.47
2023-05-15T21:22:23.476Z,72.84
2023-05-15T21:24:57.120Z,73.02
2023-05-15T21:27:28.103Z,73.41
2023-05-15T21:29:58.887Z,73.45
2023-05-15T21:32:32.427Z,73.65
2023-05-15T21:35:02.909Z,74.09
2023-05-15T21:37:33.779Z,74.06
2023-05-15T21:40:04.489Z,74.38
2023-05-15T21:42:36.592Z,74.64
2023-05-15T21:45:11.470Z,74.83
2023-05-15T21:47:46.790Z,75.11
2023-05-15T21:50:17.488Z,74.99
2023-05-15T21:52:50.844Z,75.26
2023-05-15T21:55:22.886Z,75.53
2023-05-15T21:57:53.484Z,75.70
2023-05-15T22:00:24.365Z,76.20
2023-05-15T22:02:58.247Z,76.49
2023-05-15T22:05:29.130Z,77.05
2023-05-15T22:08:01.350Z,77.09
2023-05-15T22:10:31.957Z,76.85
2023-05-15T22:13:03.558Z,76.98
2023-05-15T22:15:34.061Z,76.62
2023-05-15T22:18:05.642Z,77.12
2023-05-15T22:20:38.500Z,77.62
2023-05-15T22:23:09.036Z,78.00
2023-05-15T22:25:39.886Z,78.25
2023-05-15T22:28:10.649Z,79.24
2023-05-15T22:30:41.195Z,79.16
2023-05-15T22:33:12.021Z,79.53
2023-05-15T22:35:42.583Z,79.52
2023-05-15T22:38:13.063Z,80.02
2023-05-15T22:40:44.317Z,79.62
2023-05-15T22:43:15.405Z,79.76
2023-05-15T22:45:45.949Z,79.83
2023-05-15T22:48:16.892Z,79.81
2023-05-15T22:50:47.694Z,79.27
2023-05-15T22:53:21.119Z,79.30
2023-05-15T22:55:52.264Z,79.14
2023-05-15T22:58:22.820Z,78.84
2023-05-15T23:00:53.735Z,79.01
2023-05-15T23:03:24.679Z,78.78
2023-05-15T23:05:55.367Z,78.48
2023-05-15T23:08:26.481Z,78.37
2023-05-15T23:10:57.670Z,78.25
2023-05-15T23:13:28.212Z,78.34
2023-05-15T23:15:58.751Z,78.32
2023-05-15T23:18:29.763Z,78.08
2023-05-15T23:21:02.392Z,78.24
2023-05-15T23:23:32.895Z,78.00
2023-05-15T23:26:03.380Z,77.45
2023-05-15T23:28:34.236Z,77.29
2023-05-15T23:31:04.892Z,77.19
2023-05-15T23:33:35.692Z,77.34
2023-05-15T23:36:07.062Z,77.26
2023-05-15T23:38:38.258Z,77.29
2023-05-15T23:41:08.865Z,77.41
2023-05-15T23:43:39.337Z,76.97
2023-05-15T23:46:09.975Z,76.78
2023-05-15T23:48:40.965Z,76.72
2023-05-15T23:51:11.479Z,76.84
2023-05-15T23:53:42.169Z,76.98
2023-05-15T23:56:12.718Z,77.00
2023-05-15T23:58:43.267Z,76.89
